createdAt,value
2022-08-02T00:04:15.862Z,7.10
2022-08-02T00:09:18.698Z,6.90
2022-08-02T00:14:24.240Z,8.00
2022-08-02T00:19:26.946Z,8.00
2022-08-02T00:24:30.890Z,7.50
2022-08-02T00:29:35.781Z,8.10
2022-08-02T00:34:45.512Z,10.00
2022-08-02T00:39:48.229Z,9.20
2022-08-02T00:44:51.400Z,8.60
2022-08-02T00:49:54.197Z,8.50
2022-08-02T00:54:56.884Z,8.50
2022-08-02T00:59:59.681Z,8.10
2022-08-02T01:05:02.562Z,7.10
2022-08-02T01:10:06.642Z,8.80
2022-08-02T01:15:11.548Z,8.30
2022-08-02T01:20:35.159Z,5.70
2022-08-02T01:26:06.130Z,6.80
2022-08-02T01:31:32.062Z,6.40
2022-08-02T01:36:40.280Z,8.20
2022-08-02T01:41:45.299Z,7.20
2022-08-02T01:46:49.638Z,6.60
2022-08-02T01:52:12.327Z,6.00
2022-08-02T01:57:17.547Z,6.30
2022-08-02T02:02:22.667Z,7.50
2022-08-02T02:07:26.890Z,6.30
2022-08-02T02:12:34.714Z,5.80
2022-08-02T02:17:52.668Z,6.70
2022-08-02T02:23:05.933Z,5.70
2022-08-02T02:28:12.508Z,8.80
2022-08-02T02:33:19.230Z,8.20
2022-08-02T02:38:22.817Z,6.50
2022-08-02T02:43:28.838Z,6.90
2022-08-02T02:48:32.558Z,6.00
2022-08-02T02:54:31.110Z,7.50
2022-08-02T02:59:00.811Z,6.70
2022-08-02T03:04:07.464Z,7.10
2022-08-02T03:09:11.430Z,5.90
2022-08-02T03:14:14.885Z,7.00
2022-08-02T03:19:19.314Z,7.80
2022-08-02T03:24:28.317Z,5.00
2022-08-02T03:29:34.463Z,7.20
2022-08-02T03:34:37.841Z,5.20
2022-08-02T03:39:52.928Z,6.10
2022-08-02T03:44:57.065Z,7.10
2022-08-02T03:50:01.217Z,8.90
2022-08-02T03:55:05.076Z,7.40
2022-08-02T04:00:10.232Z,8.00
2022-08-02T04:05:13.039Z,7.90
2022-08-02T04:10:16.383Z,6.30
2022-08-02T04:15:19.287Z,10.10
2022-08-02T04:20:28.885Z,6.80
2022-08-02T04:25:34.272Z,7.80
2022-08-02T04:30:39.698Z,6.00
2022-08-02T04:35:42.958Z,7.00
2022-08-02T04:40:55.463Z,8.80
2022-08-02T04:45:58.291Z,6.40
2022-08-02T04:51:01.008Z,5.90
2022-08-02T04:56:03.949Z,7.10
2022-08-02T05:01:06.818Z,6.50
2022-08-02T05:06:19.125Z,6.60
2022-08-02T05:11:30.058Z,7.20
2022-08-02T05:16:39.488Z,6.50
2022-08-02T05:21:42.209Z,7.00
2022-08-02T05:26:44.918Z,5.90
2022-08-02T05:31:47.679Z,4.60
2022-08-02T05:36:50.409Z,5.60
2022-08-02T05:41:53.717Z,10.30
2022-08-02T05:46:56.517Z,7.40
2022-08-02T05:52:17.466Z,6.10
2022-08-02T05:57:23.225Z,6.00
2022-08-02T06:02:41.071Z,4.80
2022-08-02T06:07:45.926Z,5.80
2022-08-02T06:12:56.784Z,6.30
2022-08-02T06:18:00.071Z,4.70
2022-08-02T06:23:10.826Z,5.50
2022-08-02T06:28:19.020Z,4.40
2022-08-02T06:33:23.716Z,5.40
2022-08-02T06:38:32.633Z,5.10
2022-08-02T06:43:55.445Z,4.30
2022-08-02T06:48:58.652Z,4.70
2022-08-02T06:54:01.572Z,5.70
2022-08-02T06:59:06.071Z,6.60
2022-08-02T07:04:09.943Z,4.10
2022-08-02T07:09:21.589Z,5.00
2022-08-02T07:14:24.979Z,3.60
2022-08-02T07:19:37.728Z,4.90
2022-08-02T07:24:41.010Z,3.30
2022-08-02T07:29:46.071Z,3.00
2022-08-02T07:34:53.578Z,3.20
2022-08-02T07:39:57.834Z,3.80
2022-08-02T07:45:00.626Z,4.20
2022-08-02T07:50:04.301Z,4.00
2022-08-02T07:55:08.268Z,2.80
2022-08-02T08:00:11.704Z,2.20
2022-08-02T08:05:14.995Z,2.50
2022-08-02T08:10:18.040Z,2.90
2022-08-02T08:15:21.632Z,4.30
2022-08-02T08:20:24.583Z,3.20
2022-08-02T08:25:27.465Z,4.10
2022-08-02T08:30:32.757Z,3.30
2022-08-02T08:35:35.890Z,3.40
2022-08-02T08:40:39.357Z,3.00
2022-08-02T08:45:46.216Z,3.40
2022-08-02T08:51:07.407Z,2.80
2022-08-02T08:56:15.895Z,4.60
2022-08-02T09:01:19.997Z,3.20
2022-08-02T09:06:23.240Z,2.70
2022-08-02T09:11:26.477Z,2.50
2022-08-02T09:16:30.676Z,2.80
2022-08-02T09:21:38.264Z,2.40
2022-08-02T09:26:42.426Z,2.90
2022-08-02T09:31:49.985Z,2.30
2022-08-02T09:36:54.526Z,2.80
2022-08-02T09:42:10.877Z,1.70
2022-08-02T09:47:16.864Z,2.90
2022-08-02T09:52:37.256Z,1.80
2022-08-02T09:57:51.045Z,1.60
2022-08-02T10:03:14.889Z,2.30
2022-08-02T10:08:26.582Z,2.10
2022-08-02T10:13:34.809Z,4.60
2022-08-02T10:18:39.784Z,1.80
2022-08-02T10:23:45.730Z,2.40
2022-08-02T10:28:50.588Z,2.30
2022-08-02T10:33:56.175Z,3.30
2022-08-02T10:39:01.441Z,2.10
2022-08-02T10:44:05.279Z,2.50
2022-08-02T10:54:48.671Z,1.70
2022-08-02T11:00:30.359Z,3.90
2022-08-02T11:05:43.007Z,1.60
2022-08-02T11:10:47.223Z,1.60
2022-08-02T11:16:05.393Z,3.20
2022-08-02T11:21:25.819Z,2.30
2022-08-02T11:26:31.546Z,2.00
2022-08-02T11:31:43.411Z,1.40
2022-08-02T11:36:48.474Z,2.10
2022-08-02T11:41:58.809Z,4.60
2022-08-02T11:47:03.709Z,3.00
2022-08-02T11:52:11.146Z,2.10
2022-08-02T11:57:21.483Z,4.20
2022-08-02T12:02:32.719Z,1.80
2022-08-02T12:07:45.725Z,2.30
2022-08-02T12:12:54.350Z,2.40
2022-08-02T12:18:16.709Z,3.30
2022-08-02T12:28:26.796Z,1.40
2022-08-02T12:33:45.239Z,1.40
2022-08-02T12:38:55.969Z,1.80
2022-08-02T12:43:59.173Z,1.50
2022-08-02T12:49:17.224Z,1.70
2022-08-02T12:54:31.207Z,1.40
2022-08-02T12:59:38.933Z,4.00
2022-08-02T13:04:49.858Z,2.10
2022-08-02T13:10:02.658Z,1.80
2022-08-02T13:15:12.423Z,1.50
2022-08-02T13:20:34.564Z,1.40
2022-08-02T13:25:37.378Z,1.20
2022-08-02T13:30:40.207Z,2.90
2022-08-02T13:35:44.309Z,2.20
2022-08-02T13:41:05.546Z,1.50
2022-08-02T13:46:08.577Z,2.20
2022-08-02T13:51:14.957Z,2.30
2022-08-02T13:56:17.853Z,4.50
2022-08-02T14:01:20.653Z,1.60
2022-08-02T14:06:23.452Z,2.90
2022-08-02T14:11:26.565Z,6.30
2022-08-02T14:16:33.112Z,1.90
2022-08-02T14:21:47.058Z,3.80
2022-08-02T14:26:51.068Z,3.60
2022-08-02T14:31:53.849Z,2.00
2022-08-02T14:36:57.064Z,2.20
2022-08-02T14:42:00.895Z,2.00
2022-08-02T14:47:06.039Z,2.40
2022-08-02T14:52:08.963Z,6.30
2022-08-02T14:57:11.924Z,1.60
2022-08-02T15:02:15.174Z,2.00
2022-08-02T15:07:18.294Z,3.20
2022-08-02T15:12:21.199Z,3.30
2022-08-02T15:17:23.955Z,2.80
2022-08-02T15:22:26.951Z,3.40
2022-08-02T15:27:29.680Z,1.80
2022-08-02T15:32:32.392Z,1.50
2022-08-02T15:37:39.522Z,2.60
2022-08-02T15:42:44.554Z,2.20
2022-08-02T15:47:48.077Z,4.20
2022-08-02T15:52:53.387Z,2.00
2022-08-02T15:57:56.100Z,1.70
2022-08-02T16:02:58.853Z,2.80
2022-08-02T16:08:01.758Z,2.50
2022-08-02T16:13:23.062Z,1.80
2022-08-02T16:18:25.822Z,3.50
2022-08-02T16:24:02.437Z,2.70
2022-08-02T16:28:52.448Z,10.50
2022-08-02T16:33:57.180Z,4.40
2022-08-02T16:39:00.262Z,4.10
2022-08-02T16:44:03.016Z,6.40
2022-08-02T16:49:06.171Z,3.80
2022-08-02T16:54:28.811Z,7.20
2022-08-02T16:59:41.846Z,6.30
2022-08-02T17:04:48.045Z,7.40
2022-08-02T17:10:01.917Z,8.30
2022-08-02T17:16:01.122Z,4.30
2022-08-02T17:20:31.334Z,5.70
2022-08-02T17:25:37.577Z,5.20
2022-08-02T17:30:44.755Z,7.20
2022-08-02T17:35:52.681Z,3.70
2022-08-02T17:40:56.348Z,5.40
2022-08-02T17:46:00.534Z,5.80
2022-08-02T17:51:05.504Z,10.00
2022-08-02T17:56:08.714Z,4.90
2022-08-02T18:01:23.853Z,5.90
2022-08-02T18:06:27.130Z,4.70
2022-08-02T18:11:52.378Z,7.00
2022-08-02T18:16:53.062Z,5.20
2022-08-02T18:21:55.765Z,4.30
2022-08-02T18:26:58.875Z,10.30
2022-08-02T18:32:01.959Z,9.00
2022-08-02T18:37:04.907Z,4.70
2022-08-02T18:42:09.516Z,5.10
2022-08-02T18:47:13.460Z,10.10
2022-08-02T18:52:30.963Z,6.90
2022-08-02T18:58:18.988Z,6.70
2022-08-02T19:02:59.592Z,6.30
2022-08-02T19:08:03.070Z,6.20
2022-08-02T19:13:17.604Z,7.70
2022-08-02T19:18:26.751Z,4.50
2022-08-02T19:23:32.807Z,5.40
2022-08-02T19:28:35.505Z,6.00
2022-08-02T19:34:04.914Z,5.50
2022-08-02T19:39:02.788Z,4.50
2022-08-02T19:44:24.506Z,4.00
2022-08-02T19:49:40.191Z,6.50
2022-08-02T19:54:55.545Z,6.00
2022-08-02T20:00:00.368Z,6.60
2022-08-02T20:05:16.047Z,10.00
2022-08-02T20:10:23.924Z,6.70
2022-08-02T20:15:51.722Z,10.90
2022-08-02T20:20:51.596Z,11.00
2022-08-02T20:25:54.542Z,8.90
2022-08-02T20:30:59.084Z,7.30
2022-08-02T20:36:10.172Z,10.50
2022-08-02T20:41:21.584Z,12.10
2022-08-02T20:46:24.989Z,12.30
2022-08-02T20:51:33.420Z,9.70
2022-08-02T20:56:37.613Z,10.20
2022-08-02T21:01:41.212Z,9.10
2022-08-02T21:07:00.806Z,6.30
2022-08-02T21:12:03.660Z,9.70
2022-08-02T21:17:10.637Z,10.20
2022-08-02T21:22:13.769Z,6.50
2022-08-02T21:27:53.178Z,6.60
2022-08-02T21:32:40.548Z,11.30
2022-08-02T21:37:45.228Z,7.90
2022-08-02T21:42:48.150Z,14.60
2022-08-02T21:47:51.898Z,8.40
2022-08-02T21:52:54.759Z,6.20
2022-08-02T21:57:57.526Z,8.00
2022-08-02T22:03:00.292Z,8.10
2022-08-02T22:08:22.953Z,7.40
2022-08-02T22:13:26.585Z,8.00
2022-08-02T22:18:41.378Z,6.90
2022-08-02T22:23:53.159Z,8.60
2022-08-02T22:28:59.616Z,6.90
2022-08-02T22:34:05.711Z,7.80
2022-08-02T22:39:19.370Z,8.30
2022-08-02T22:44:22.623Z,7.80
2022-08-02T22:49:38.567Z,6.50
2022-08-02T22:54:48.089Z,8.10
2022-08-02T22:59:50.892Z,10.20
2022-08-02T23:04:53.614Z,7.30
2022-08-02T23:09:56.548Z,11.20
2022-08-02T23:14:59.576Z,10.20
2022-08-02T23:20:02.890Z,8.60
2022-08-02T23:25:07.710Z,7.10
2022-08-02T23:30:10.805Z,6.80
2022-08-02T23:35:17.242Z,7.10
2022-08-02T23:40:39.105Z,9.40
2022-08-02T23:45:45.732Z,7.90
2022-08-02T23:50:48.641Z,8.10
2022-08-02T23:55:51.372Z,6.00
